Aviation Digital Data Service (ADDS)

Output produced by METARs form (1321 UTC 21 August 2019)
found at http://www.aviationweather.gov/metar/data/
 
Forecast for: WMAP (KLUANG , MY)
Text: TAF WMAP 211100Z 2112/2212 13006KT 9999 FEW017CB
Forecast period: 1200 UTC 21 August 2019 to 1200 UTC 22 August 2019
Forecast type: FROM: standard forecast or significant change
Winds: from the SE (130 degrees) at 7 MPH (6 knots; 3.1 m/s)
Visibility: 6 or more miles 10+ km)
Ceiling: at least 12,000 feet AGL
Clouds: few clouds at 1700 feet AGL
Weather: no significant weather forecast for this period